createdAt,value
2023-01-18T00:01:08.342Z,97803.71
2023-01-18T00:06:12.267Z,97805.67
2023-01-18T00:11:17.517Z,97799.14
2023-01-18T00:16:22.594Z,97795.86
2023-01-18T00:21:28.198Z,97794.90
2023-01-18T00:26:32.015Z,97790.55
2023-01-18T00:31:35.817Z,97787.30
2023-01-18T00:36:41.518Z,97783.51
2023-01-18T00:42:05.558Z,97782.30
2023-01-18T00:47:09.432Z,97780.77
2023-01-18T00:52:13.343Z,97788.23
2023-01-18T00:57:17.238Z,97786.60
2023-01-18T01:02:21.140Z,97784.45
2023-01-18T01:07:25.219Z,97776.31
2023-01-18T01:12:47.579Z,97763.75
2023-01-18T01:18:09.898Z,97760.77
2023-01-18T01:23:40.995Z,97756.13
2023-01-18T01:28:50.136Z,97750.52
2023-01-18T01:33:53.959Z,97737.10
2023-01-18T01:38:58.284Z,97732.25
2023-01-18T01:44:21.899Z,97736.34
2023-01-18T01:49:30.319Z,97738.83
2023-01-18T01:54:38.919Z,97733.67
2023-01-18T01:59:47.606Z,97732.94
2023-01-18T02:04:53.999Z,97734.00
2023-01-18T02:09:58.335Z,97733.10
2023-01-18T02:15:02.515Z,97729.48
2023-01-18T02:20:44.379Z,97727.35
2023-01-18T02:26:33.676Z,97733.63
2023-01-18T02:32:11.402Z,97727.94
2023-01-18T02:37:52.036Z,97721.66
2023-01-18T02:43:16.249Z,97728.45
2023-01-18T02:48:22.099Z,97730.46
2023-01-18T02:53:25.915Z,97743.73
2023-01-18T02:58:56.259Z,97742.27
2023-01-18T03:04:08.045Z,97742.79
2023-01-18T03:09:18.779Z,97738.44
2023-01-18T03:14:47.960Z,97744.12
2023-01-18T03:20:05.464Z,97748.63
2023-01-18T03:25:13.833Z,97752.66
2023-01-18T03:30:36.295Z,97758.27
2023-01-18T03:35:41.139Z,97756.02
2023-01-18T03:40:45.016Z,97752.06
2023-01-18T03:45:49.833Z,97746.77
2023-01-18T03:51:15.136Z,97750.35
2023-01-18T03:56:30.339Z,97747.69
2023-01-18T04:01:34.294Z,97741.60
2023-01-18T04:06:38.142Z,97737.71
2023-01-18T04:11:41.883Z,97738.36
2023-01-18T04:16:45.866Z,97732.89
2023-01-18T04:21:49.561Z,97714.48
2023-01-18T04:26:53.298Z,97706.40
2023-01-18T04:31:57.281Z,97700.77
2023-01-18T04:37:01.214Z,97700.95
2023-01-18T04:42:05.295Z,97708.36
2023-01-18T04:47:09.036Z,97722.18
2023-01-18T04:52:12.977Z,97731.30
2023-01-18T04:57:17.005Z,97731.28
2023-01-18T05:02:20.838Z,97735.21
2023-01-18T05:07:25.676Z,97743.14
2023-01-18T05:12:30.093Z,97739.65
2023-01-18T05:17:35.600Z,97760.52
2023-01-18T05:22:39.721Z,97764.23
2023-01-18T05:27:43.470Z,97754.96
2023-01-18T05:32:47.269Z,97747.14
2023-01-18T05:37:51.092Z,97742.17
2023-01-18T05:42:54.993Z,97741.61
2023-01-18T05:47:59.855Z,97736.14
2023-01-18T05:53:03.603Z,97728.00
2023-01-18T05:58:07.413Z,97727.11
2023-01-18T06:03:11.150Z,97724.53
2023-01-18T06:08:15.927Z,97738.51
2023-01-18T06:13:19.931Z,97741.94
2023-01-18T06:18:26.529Z,97743.02
2023-01-18T06:23:31.406Z,97738.91
2023-01-18T06:28:35.424Z,97736.09
2023-01-18T06:33:39.234Z,97740.81
2023-01-18T06:38:43.350Z,97743.21
2023-01-18T06:43:47.194Z,97733.21
2023-01-18T06:48:50.790Z,97725.05
2023-01-18T06:53:54.549Z,97721.98
2023-01-18T06:58:59.872Z,97717.41
2023-01-18T07:04:03.721Z,97711.96
2023-01-18T07:09:08.542Z,97716.59
2023-01-18T07:14:15.318Z,97719.30
2023-01-18T07:19:19.186Z,97726.40
2023-01-18T07:24:22.959Z,97727.88
2023-01-18T07:29:28.043Z,97725.63
2023-01-18T07:34:32.800Z,97742.22
2023-01-18T07:39:36.596Z,97746.50
2023-01-18T07:44:40.405Z,97744.98
2023-01-18T07:49:45.142Z,97734.77
2023-01-18T07:54:48.898Z,97733.04
2023-01-18T07:59:53.321Z,97743.29
2023-01-18T08:04:56.998Z,97742.28
2023-01-18T08:10:00.723Z,97741.43
2023-01-18T08:15:05.165Z,97740.94
2023-01-18T08:20:10.353Z,97746.85
2023-01-18T08:25:14.638Z,97761.13
2023-01-18T08:30:18.731Z,97770.27
2023-01-18T08:35:23.848Z,97772.46
2023-01-18T08:40:28.618Z,97774.17
2023-01-18T08:45:33.490Z,97784.75
2023-01-18T08:50:39.585Z,97791.85
2023-01-18T08:55:43.585Z,97797.52
2023-01-18T09:00:50.919Z,97797.88
2023-01-18T09:05:54.946Z,97792.23
2023-01-18T09:11:06.220Z,97789.06
2023-01-18T09:16:11.708Z,97790.90
2023-01-18T09:21:19.719Z,97804.84
2023-01-18T09:26:23.677Z,97818.61
2023-01-18T09:31:29.094Z,97831.32
2023-01-18T09:36:33.078Z,97834.14
2023-01-18T09:41:51.039Z,97829.31
2023-01-18T09:47:11.169Z,97834.98
2023-01-18T09:53:03.388Z,97830.91
2023-01-18T09:58:49.179Z,97836.95
2023-01-18T10:03:56.947Z,97828.98
2023-01-18T10:09:07.226Z,97821.81
2023-01-18T10:14:49.378Z,97818.50
2023-01-18T10:19:53.259Z,97810.80
2023-01-18T10:25:21.345Z,97819.54
2023-01-18T10:30:40.886Z,97827.42
2023-01-18T10:35:51.103Z,97828.00
2023-01-18T10:41:01.097Z,97829.92
2023-01-18T10:46:14.883Z,97833.02
2023-01-18T10:51:29.716Z,97830.95
2023-01-18T10:56:34.890Z,97844.94
2023-01-18T11:01:55.039Z,97842.79
2023-01-18T11:07:03.753Z,97845.93
2023-01-18T11:12:43.244Z,97854.20
2023-01-18T11:18:03.217Z,97854.73
2023-01-18T11:23:32.214Z,97861.18
2023-01-18T11:28:48.690Z,97869.00
2023-01-18T11:34:01.033Z,97872.27
2023-01-18T11:39:45.477Z,97872.73
2023-01-18T11:45:13.799Z,97875.96
2023-01-18T11:50:49.759Z,97883.20
2023-01-18T11:56:06.767Z,97890.90
2023-01-18T12:01:39.203Z,97902.73
2023-01-18T12:07:18.509Z,97905.96
2023-01-18T12:12:57.770Z,97911.49
2023-01-18T12:18:38.779Z,97912.48
2023-01-18T12:24:21.075Z,97918.95
2023-01-18T12:29:55.884Z,97931.98
2023-01-18T12:35:33.189Z,97946.60
2023-01-18T12:41:03.055Z,97953.58
2023-01-18T12:46:32.461Z,97962.04
2023-01-18T12:51:38.031Z,97967.95
2023-01-18T12:56:47.713Z,97975.56
2023-01-18T13:02:03.603Z,97989.99
2023-01-18T13:07:13.561Z,97994.35
2023-01-18T13:12:20.660Z,97999.50
2023-01-18T13:17:41.681Z,98017.43
2023-01-18T13:23:16.448Z,98029.13
2023-01-18T13:28:24.989Z,98043.16
2023-01-18T13:33:48.097Z,98052.14
2023-01-18T13:39:03.937Z,98063.67
2023-01-18T13:44:32.676Z,98073.77
2023-01-18T13:49:46.279Z,98085.05
2023-01-18T13:55:26.338Z,98096.29
2023-01-18T14:00:30.551Z,98104.50
2023-01-18T14:05:40.252Z,98111.02
2023-01-18T14:10:50.534Z,98121.16
2023-01-18T14:15:55.917Z,98133.55
2023-01-18T14:21:33.590Z,98143.30
2023-01-18T14:26:41.017Z,98157.20
2023-01-18T14:31:51.670Z,98169.45
2023-01-18T14:36:57.138Z,98182.27
2023-01-18T14:42:04.235Z,98195.59
2023-01-18T14:47:24.382Z,98203.34
2023-01-18T14:52:31.105Z,98213.84
2023-01-18T14:57:35.743Z,98220.02
2023-01-18T15:02:39.642Z,98221.80
2023-01-18T15:07:46.997Z,98225.56
2023-01-18T15:12:53.725Z,98234.31
2023-01-18T15:18:10.789Z,98240.16
2023-01-18T15:23:14.578Z,98255.25
2023-01-18T15:28:23.825Z,98261.44
2023-01-18T15:33:28.653Z,98277.31
2023-01-18T15:38:33.061Z,98287.63
2023-01-18T15:43:45.279Z,98293.31
2023-01-18T15:48:55.948Z,98298.02
2023-01-18T15:53:59.551Z,98305.77
2023-01-18T15:59:10.114Z,98316.30
2023-01-18T16:04:13.964Z,98320.13
2023-01-18T16:09:21.333Z,98323.73
2023-01-18T16:14:54.303Z,98326.19
2023-01-18T16:19:58.262Z,98334.06
2023-01-18T16:25:17.375Z,98336.47
2023-01-18T16:30:31.157Z,98339.59
2023-01-18T16:35:41.151Z,98345.81
2023-01-18T16:40:50.360Z,98354.04
2023-01-18T16:45:59.375Z,98360.60
2023-01-18T16:51:17.407Z,98368.11
2023-01-18T16:56:23.106Z,98377.11
2023-01-18T17:01:30.828Z,98380.38
2023-01-18T17:06:35.503Z,98379.04
2023-01-18T17:11:42.716Z,98380.80
2023-01-18T17:16:52.892Z,98392.60
2023-01-18T17:21:58.623Z,98405.16
2023-01-18T17:27:03.104Z,98421.02
2023-01-18T17:32:08.747Z,98434.39
2023-01-18T17:37:15.620Z,98441.83
2023-01-18T17:42:29.780Z,98450.73
2023-01-18T17:47:35.727Z,98459.64
2023-01-18T17:52:42.085Z,98470.23
2023-01-18T17:57:47.248Z,98472.27
2023-01-18T18:02:54.639Z,98479.27
2023-01-18T18:08:01.494Z,98489.57
2023-01-18T18:13:06.751Z,98490.39
2023-01-18T18:18:22.705Z,98490.96
2023-01-18T18:23:31.180Z,98492.58
2023-01-18T18:28:38.722Z,98496.38
2023-01-18T18:33:44.479Z,98506.27
2023-01-18T18:38:50.376Z,98508.01
2023-01-18T18:43:55.333Z,98505.80
2023-01-18T18:49:05.372Z,98515.54
2023-01-18T18:54:12.398Z,98523.77
2023-01-18T18:59:17.994Z,98531.77
2023-01-18T19:04:23.456Z,98540.48
2023-01-18T19:09:29.083Z,98557.09
2023-01-18T19:14:34.860Z,98564.62
2023-01-18T19:19:39.503Z,98573.92
2023-01-18T19:24:45.301Z,98582.17
2023-01-18T19:29:50.944Z,98584.21
2023-01-18T19:34:55.775Z,98589.48
2023-01-18T19:40:00.885Z,98599.70
2023-01-18T19:45:19.614Z,98607.77
2023-01-18T19:50:31.702Z,98618.74
2023-01-18T19:55:39.356Z,98631.31
2023-01-18T20:00:46.209Z,98635.77
2023-01-18T20:05:51.380Z,98644.98
2023-01-18T20:10:56.511Z,98651.66
2023-01-18T20:16:06.457Z,98669.23
2023-01-18T20:21:14.920Z,98681.39
2023-01-18T20:26:34.918Z,98692.73
2023-01-18T20:31:49.629Z,98701.46
2023-01-18T20:37:03.438Z,98701.29
2023-01-18T20:42:10.977Z,98698.39
2023-01-18T20:47:17.676Z,98697.23
2023-01-18T20:52:22.286Z,98699.96
2023-01-18T20:57:32.942Z,98700.23
2023-01-18T21:02:38.096Z,98697.38
2023-01-18T21:07:42.243Z,98696.16
2023-01-18T21:12:48.275Z,98710.79
2023-01-18T21:17:54.960Z,98717.26
2023-01-18T21:23:00.557Z,98710.67
2023-01-18T21:28:04.575Z,98704.73
2023-01-18T21:33:11.685Z,98721.10
2023-01-18T21:38:16.605Z,98726.17
2023-01-18T21:43:40.659Z,98725.05
2023-01-18T21:48:44.376Z,98740.14
2023-01-18T21:54:07.497Z,98756.40
2023-01-18T21:59:38.325Z,98770.73
2023-01-18T22:18:16.048Z,98787.45
2023-01-18T22:23:23.574Z,98799.42
2023-01-18T22:28:29.377Z,98807.16
2023-01-18T22:33:33.559Z,98812.68
2023-01-18T22:38:38.383Z,98826.73
2023-01-18T22:43:42.825Z,98835.05
2023-01-18T22:48:50.389Z,98832.05
2023-01-18T22:53:58.862Z,98837.08
2023-01-18T22:59:02.746Z,98843.31
2023-01-18T23:04:07.096Z,98840.85
2023-01-18T23:09:10.844Z,98843.48
2023-01-18T23:14:33.396Z,98853.06
2023-01-18T23:19:37.171Z,98860.30
2023-01-18T23:24:40.945Z,98866.95
2023-01-18T23:29:47.705Z,98875.79
2023-01-18T23:34:51.516Z,98873.63
2023-01-18T23:40:14.486Z,98873.91
2023-01-18T23:45:37.097Z,98880.48
2023-01-18T23:50:59.629Z,98889.75
2023-01-18T23:56:03.382Z,98896.27
